TimeMST,TemperatureF,Dew PointF,Humidity,Sea Level PressureIn,VisibilityMPH,Wind Direction,Wind SpeedMPH,Gust SpeedMPH,PrecipitationIn,Events,Conditions,WindDirDegrees,DateUTC
12:53 AM,43.0,39.9,89,29.88,7.0,SSE,3.5,-,0.01,Rain,Light Rain,150,2013-11-22 07:53:00
1:25 AM,42.8,41.0,93,29.98,5.0,Calm,Calm,-,0.04,Rain,Light Rain,0,2013-11-22 08:25:00
1:36 AM,42.8,41.0,93,29.98,6.0,Calm,Calm,-,0.05,Rain,Light Rain,0,2013-11-22 08:36:00
1:49 AM,42.8,41.0,93,29.97,7.0,West,3.5,-,0.05,Rain,Light Rain,270,2013-11-22 08:49:00
1:53 AM,43.0,41.0,93,29.87,7.0,West,3.5,-,0.06,Rain,Light Rain,260,2013-11-22 08:53:00
2:12 AM,42.8,41.0,93,29.97,5.0,Calm,Calm,-,0.01,Rain,Light Rain,0,2013-11-22 09:12:00
2:53 AM,42.1,41.0,96,29.86,5.0,NNE,3.5,-,0.06,Rain,Light Rain,20,2013-11-22 09:53:00
3:03 AM,42.8,41.0,93,29.96,5.0,NE,5.8,-,0.02,Rain,Light Rain,50,2013-11-22 10:03:00
3:30 AM,42.8,41.0,93,29.95,3.0,NE,4.6,-,0.10,Rain,Light Rain,50,2013-11-22 10:30:00
3:53 AM,41.0,37.9,89,29.85,4.0,Calm,Calm,-,0.18,Rain,Light Rain,0,2013-11-22 10:53:00
4:09 AM,42.8,39.2,87,29.95,4.0,WSW,3.5,-,0.03,Rain,Light Rain,250,2013-11-22 11:09:00
4:53 AM,41.0,39.0,93,29.82,10.0,NW,4.6,-,0.08,Rain,Light Rain,320,2013-11-22 11:53:00
5:53 AM,41.0,39.9,96,29.83,9.0,Calm,Calm,-,0.02,Rain,Light Rain,0,2013-11-22 12:53:00
6:14 AM,41.0,39.2,93,29.92,4.0,Calm,Calm,-,0.02,Rain,Light Rain,0,2013-11-22 13:14:00
6:53 AM,41.0,39.9,96,29.83,5.0,Calm,Calm,-,0.08,Rain,Light Rain,0,2013-11-22 13:53:00
7:50 AM,42.8,39.2,87,29.92,7.0,NW,4.6,-,0.02,Rain,Light Rain,310,2013-11-22 14:50:00
7:53 AM,42.1,39.9,92,29.81,7.0,NW,5.8,-,0.02,,Overcast,320,2013-11-22 14:53:00
8:53 AM,42.1,39.9,92,29.83,9.0,WNW,6.9,-,0.01,Rain,Light Rain,300,2013-11-22 15:53:00
9:39 AM,42.8,41.0,93,29.92,2.5,NNW,6.9,-,0.03,Rain,Light Rain,330,2013-11-22 16:39:00
9:53 AM,42.1,41.0,96,29.83,4.0,NNW,8.1,-,0.04,Rain,Light Rain,330,2013-11-22 16:53:00
9:59 AM,42.8,41.0,93,29.93,4.0,NW,5.8,-,0.00,Rain,Light Rain,320,2013-11-22 16:59:00
10:12 AM,42.8,41.0,93,29.94,4.0,WNW,5.8,-,0.02,Rain,Light Rain,300,2013-11-22 17:12:00
10:23 AM,42.8,41.0,93,29.94,2.0,NW,5.8,-,0.03,Rain,Light Rain,310,2013-11-22 17:23:00
10:42 AM,42.8,41.0,93,29.95,1.5,West,5.8,-,0.07,Rain,Rain,280,2013-11-22 17:42:00
10:53 AM,42.1,41.0,96,29.86,2.5,West,6.9,-,0.10,Rain,Rain,280,2013-11-22 17:53:00
10:58 AM,42.8,41.0,93,29.94,4.0,West,5.8,-,0.00,Rain,Light Rain,280,2013-11-22 17:58:00
11:30 AM,42.8,41.0,93,29.94,10.0,WNW,6.9,-,0.00,Rain,Light Rain,290,2013-11-22 18:30:00
11:51 AM,42.8,41.0,93,29.94,7.0,NW,4.6,-,0.01,Rain,Light Rain,320,2013-11-22 18:51:00
11:53 AM,43.0,41.0,93,29.86,7.0,NW,4.6,-,0.01,Rain,Light Rain,320,2013-11-22 18:53:00
12:16 PM,42.8,41.0,93,29.92,5.0,NW,5.8,-,0.00,Rain,Light Rain,310,2013-11-22 19:16:00
12:53 PM,43.0,41.0,93,29.86,5.0,NW,3.5,-,0.02,Rain,Light Rain,310,2013-11-22 19:53:00
1:53 PM,43.0,41.0,93,29.86,4.0,WNW,5.8,-,0.02,Rain,Light Rain,300,2013-11-22 20:53:00
2:53 PM,43.0,41.0,93,29.86,5.0,North,5.8,-,0.06,Rain,Light Rain,350,2013-11-22 21:53:00
3:01 PM,42.8,41.0,93,29.94,4.0,NNW,5.8,-,0.00,Rain,Light Rain,340,2013-11-22 22:01:00
3:51 PM,42.8,39.2,87,29.98,2.5,SW,5.8,-,0.04,Rain,Rain,220,2013-11-22 22:51:00
3:53 PM,42.1,39.9,92,29.91,2.0,SSW,4.6,-,0.04,Rain,Rain,210,2013-11-22 22:53:00
4:00 PM,42.8,39.2,87,29.99,2.5,South,5.8,-,0.02,Rain,Rain,190,2013-11-22 23:00:00
4:09 PM,41.0,39.2,93,29.99,4.0,South,3.5,-,0.04,Rain,Rain,190,2013-11-22 23:09:00
4:43 PM,41.0,37.4,87,29.99,4.0,SSE,3.5,-,0.08,Rain,Light Rain,160,2013-11-22 23:43:00
4:53 PM,41.0,37.9,89,29.91,3.0,Calm,Calm,-,0.10,Rain,Light Rain,0,2013-11-22 23:53:00
5:21 PM,41.0,39.2,93,29.97,10.0,NNE,4.6,-,0.00,,Overcast,30,2013-11-23 00:21:00
5:36 PM,41.0,39.2,93,29.96,10.0,NNE,5.8,-,0.00,Rain,Light Rain,20,2013-11-23 00:36:00
5:44 PM,41.0,39.2,93,29.96,10.0,North,5.8,-,0.00,Rain,Light Rain,10,2013-11-23 00:44:00
5:53 PM,41.0,39.0,93,29.89,10.0,North,3.5,-,0.00,Rain,Light Rain,360,2013-11-23 00:53:00
6:53 PM,41.0,39.0,93,29.90,8.0,Calm,Calm,-,0.00,Rain,Light Rain,0,2013-11-23 01:53:00
7:12 PM,41.0,37.4,87,29.98,4.0,Calm,Calm,-,0.02,Rain,Light Rain,0,2013-11-23 02:12:00
7:21 PM,39.2,37.4,93,29.98,3.0,Calm,Calm,-,0.03,Rain,Light Rain,0,2013-11-23 02:21:00
7:53 PM,39.9,37.9,93,29.91,4.0,West,3.5,-,0.05,Rain,Light Rain,280,2013-11-23 02:53:00
8:20 PM,39.2,39.2,100,29.97,6.0,WSW,3.5,-,0.02,Rain,Light Rain,240,2013-11-23 03:20:00
8:29 PM,39.2,39.2,100,29.97,5.0,WSW,4.6,-,0.03,Rain,Light Rain,240,2013-11-23 03:29:00
8:53 PM,39.9,39.0,97,29.91,4.0,SW,3.5,-,0.06,Rain,Rain,220,2013-11-23 03:53:00
9:02 PM,41.0,39.2,93,29.98,5.0,Calm,Calm,-,0.01,Rain,Light Rain,0,2013-11-23 04:02:00
9:53 PM,41.0,39.0,93,29.90,5.0,Calm,Calm,-,0.06,Rain,Light Rain,0,2013-11-23 04:53:00
10:53 PM,41.0,39.9,96,29.92,4.0,SSW,3.5,-,0.09,Rain,Rain,210,2013-11-23 05:53:00
11:04 PM,41.0,39.2,93,30.00,4.0,Calm,Calm,-,0.02,Rain,Rain,0,2013-11-23 06:04:00
11:16 PM,41.0,39.2,93,30.01,5.0,SSE,3.5,-,0.04,Rain,Light Rain,160,2013-11-23 06:16:00
11:27 PM,41.0,39.2,93,30.01,7.0,SE,4.6,-,0.05,Rain,Light Rain,140,2013-11-23 06:27:00
11:53 PM,43.0,41.0,93,29.91,9.0,SE,11.5,18.4,0.06,Rain,Light Rain,130,2013-11-23 06:53:00